sensor_id;sensor_type;location;lat;lon;timestamp;P1;durP1;ratioP1;P2;durP2;ratioP2
6864;SDS011;3471;49.678;8.388;2024-03-07T00:00:09;1049.27;;;979.27;;
6864;SDS011;3471;49.678;8.388;2024-03-07T00:02:43;987.38;;;921.38;;
6864;SDS011;3471;49.678;8.388;2024-03-07T00:05:15;984.15;;;917.97;;
6864;SDS011;3471;49.678;8.388;2024-03-07T00:07:41;1009.55;;;942.42;;
6864;SDS011;3471;49.678;8.388;2024-03-07T00:10:07;978.85;;;913.70;;
6864;SDS011;3471;49.678;8.388;2024-03-07T00:12:34;1024.53;;;956.05;;
6864;SDS011;3471;49.678;8.388;2024-03-07T00:15:03;970.40;;;905.70;;
6864;SDS011;3471;49.678;8.388;2024-03-07T00:17:33;943.40;;;880.47;;
6864;SDS011;3471;49.678;8.388;2024-03-07T00:19:59;1022.47;;;954.33;;
6864;SDS011;3471;49.678;8.388;2024-03-07T00:22:25;1007.72;;;941.00;;
6864;SDS011;3471;49.678;8.388;2024-03-07T00:24:54;953.85;;;890.13;;
6864;SDS011;3471;49.678;8.388;2024-03-07T00:27:20;967.10;;;902.60;;
6864;SDS011;3471;49.678;8.388;2024-03-07T00:29:46;1011.83;;;944.23;;
6864;SDS011;3471;49.678;8.388;2024-03-07T00:32:18;990.38;;;924.60;;
6864;SDS011;3471;49.678;8.388;2024-03-07T00:34:44;1007.65;;;940.45;;
6864;SDS011;3471;49.678;8.388;2024-03-07T00:37:10;1010.10;;;942.83;;
6864;SDS011;3471;49.678;8.388;2024-03-07T00:39:35;994.97;;;928.60;;
6864;SDS011;3471;49.678;8.388;2024-03-07T00:42:01;927.20;;;865.27;;
6864;SDS011;3471;49.678;8.388;2024-03-07T00:44:27;946.80;;;883.53;;
6864;SDS011;3471;49.678;8.388;2024-03-07T00:46:52;991.85;;;925.67;;
6864;SDS011;3471;49.678;8.388;2024-03-07T00:49:18;998.40;;;931.55;;
6864;SDS011;3471;49.678;8.388;2024-03-07T00:51:43;990.00;;;923.80;;
6864;SDS011;3471;49.678;8.388;2024-03-07T00:54:09;932.42;;;870.25;;
6864;SDS011;3471;49.678;8.388;2024-03-07T00:56:37;971.45;;;906.75;;
6864;SDS011;3471;49.678;8.388;2024-03-07T00:59:04;975.13;;;910.05;;
6864;SDS011;3471;49.678;8.388;2024-03-07T01:01:30;1023.83;;;955.63;;
6864;SDS011;3471;49.678;8.388;2024-03-07T01:03:58;1042.63;;;973.10;;
6864;SDS011;3471;49.678;8.388;2024-03-07T01:06:25;933.00;;;870.55;;
6864;SDS011;3471;49.678;8.388;2024-03-07T01:08:51;898.15;;;838.30;;
6864;SDS011;3471;49.678;8.388;2024-03-07T01:11:17;1003.33;;;936.60;;
6864;SDS011;3471;49.678;8.388;2024-03-07T01:13:42;1005.53;;;937.77;;
6864;SDS011;3471;49.678;8.388;2024-03-07T01:16:08;970.22;;;905.70;;
6864;SDS011;3471;49.678;8.388;2024-03-07T01:18:34;1041.95;;;972.10;;
6864;SDS011;3471;49.678;8.388;2024-03-07T01:21:03;1002.03;;;935.57;;
6864;SDS011;3471;49.678;8.388;2024-03-07T01:23:30;999.25;;;932.75;;
6864;SDS011;3471;49.678;8.388;2024-03-07T01:25:56;1019.80;;;951.90;;
6864;SDS011;3471;49.678;8.388;2024-03-07T01:28:24;1001.05;;;934.35;;
6864;SDS011;3471;49.678;8.388;2024-03-07T01:30:50;1000.80;;;934.22;;
6864;SDS011;3471;49.678;8.388;2024-03-07T01:33:16;1014.55;;;946.78;;
6864;SDS011;3471;49.678;8.388;2024-03-07T01:35:42;1012.03;;;944.63;;
6864;SDS011;3471;49.678;8.388;2024-03-07T01:38:07;993.47;;;927.00;;
6864;SDS011;3471;49.678;8.388;2024-03-07T01:40:38;972.10;;;906.80;;
6864;SDS011;3471;49.678;8.388;2024-03-07T01:43:04;999.25;;;932.72;;
6864;SDS011;3471;49.678;8.388;2024-03-07T01:45:31;1016.03;;;947.97;;
6864;SDS011;3471;49.678;8.388;2024-03-07T01:47:57;939.47;;;876.67;;
6864;SDS011;3471;49.678;8.388;2024-03-07T01:50:22;922.85;;;861.35;;
6864;SDS011;3471;49.678;8.388;2024-03-07T01:52:48;932.83;;;870.40;;
6864;SDS011;3471;49.678;8.388;2024-03-07T01:55:16;936.25;;;873.67;;
6864;SDS011;3471;49.678;8.388;2024-03-07T01:57:42;886.72;;;827.15;;
6864;SDS011;3471;49.678;8.388;2024-03-07T02:00:08;930.63;;;868.47;;
6864;SDS011;3471;49.678;8.388;2024-03-07T02:02:34;863.42;;;805.83;;
6864;SDS011;3471;49.678;8.388;2024-03-07T02:05:00;939.43;;;876.13;;
6864;SDS011;3471;49.678;8.388;2024-03-07T02:07:27;878.97;;;820.30;;
6864;SDS011;3471;49.678;8.388;2024-03-07T02:10:02;931.37;;;869.17;;
6864;SDS011;3471;49.678;8.388;2024-03-07T02:12:31;1052.03;;;982.20;;
6864;SDS011;3471;49.678;8.388;2024-03-07T02:14:58;1044.88;;;974.88;;
6864;SDS011;3471;49.678;8.388;2024-03-07T02:17:24;1085.28;;;999.90;;
6864;SDS011;3471;49.678;8.388;2024-03-07T02:19:53;1082.88;;;999.90;;
6864;SDS011;3471;49.678;8.388;2024-03-07T02:22:19;1031.57;;;962.50;;
6864;SDS011;3471;49.678;8.388;2024-03-07T02:24:45;1029.68;;;961.28;;
6864;SDS011;3471;49.678;8.388;2024-03-07T02:27:11;1008.10;;;940.92;;
6864;SDS011;3471;49.678;8.388;2024-03-07T02:29:37;1008.78;;;941.33;;
6864;SDS011;3471;49.678;8.388;2024-03-07T02:32:03;1035.93;;;966.72;;
6864;SDS011;3471;49.678;8.388;2024-03-07T02:34:29;967.00;;;902.50;;
6864;SDS011;3471;49.678;8.388;2024-03-07T02:36:55;999.13;;;932.92;;
6864;SDS011;3471;49.678;8.388;2024-03-07T02:39:21;958.17;;;894.10;;
6864;SDS011;3471;49.678;8.388;2024-03-07T02:41:47;954.88;;;891.10;;
6864;SDS011;3471;49.678;8.388;2024-03-07T02:44:15;958.25;;;894.30;;
6864;SDS011;3471;49.678;8.388;2024-03-07T02:46:41;1067.07;;;995.60;;
6864;SDS011;3471;49.678;8.388;2024-03-07T02:49:07;1010.92;;;944.05;;
6864;SDS011;3471;49.678;8.388;2024-03-07T02:51:33;1034.37;;;965.17;;
6864;SDS011;3471;49.678;8.388;2024-03-07T02:53:58;1059.70;;;989.17;;
6864;SDS011;3471;49.678;8.388;2024-03-07T02:56:24;1011.30;;;943.80;;
6864;SDS011;3471;49.678;8.388;2024-03-07T02:58:50;1055.13;;;985.03;;
6864;SDS011;3471;49.678;8.388;2024-03-07T03:01:16;1016.53;;;948.65;;
6864;SDS011;3471;49.678;8.388;2024-03-07T03:03:42;993.20;;;927.35;;
6864;SDS011;3471;49.678;8.388;2024-03-07T03:06:08;977.30;;;912.13;;
6864;SDS011;3471;49.678;8.388;2024-03-07T03:08:34;1012.83;;;944.92;;
6864;SDS011;3471;49.678;8.388;2024-03-07T03:11:00;995.00;;;928.43;;
6864;SDS011;3471;49.678;8.388;2024-03-07T03:13:26;999.20;;;932.70;;
6864;SDS011;3471;49.678;8.388;2024-03-07T03:15:55;1000.07;;;933.47;;
6864;SDS011;3471;49.678;8.388;2024-03-07T03:18:21;975.13;;;910.58;;
6864;SDS011;3471;49.678;8.388;2024-03-07T03:20:48;957.10;;;893.25;;
6864;SDS011;3471;49.678;8.388;2024-03-07T03:23:14;1029.00;;;960.38;;
6864;SDS011;3471;49.678;8.388;2024-03-07T03:25:40;1053.75;;;983.75;;
6864;SDS011;3471;49.678;8.388;2024-03-07T03:28:06;994.80;;;928.38;;
6864;SDS011;3471;49.678;8.388;2024-03-07T03:30:34;1016.77;;;949.07;;
6864;SDS011;3471;49.678;8.388;2024-03-07T03:33:03;996.97;;;930.55;;
6864;SDS011;3471;49.678;8.388;2024-03-07T03:35:30;1030.28;;;961.88;;
6864;SDS011;3471;49.678;8.388;2024-03-07T03:37:56;1044.22;;;974.53;;
6864;SDS011;3471;49.678;8.388;2024-03-07T03:40:22;1071.77;;;999.60;;
6864;SDS011;3471;49.678;8.388;2024-03-07T03:42:48;1029.68;;;961.13;;
6864;SDS011;3471;49.678;8.388;2024-03-07T03:45:13;1037.07;;;968.28;;
6864;SDS011;3471;49.678;8.388;2024-03-07T03:47:41;1013.80;;;946.50;;
6864;SDS011;3471;49.678;8.388;2024-03-07T03:50:08;1027.43;;;959.47;;
6864;SDS011;3471;49.678;8.388;2024-03-07T03:52:35;1034.20;;;965.80;;
6864;SDS011;3471;49.678;8.388;2024-03-07T03:55:01;1022.72;;;953.70;;
6864;SDS011;3471;49.678;8.388;2024-03-07T03:57:28;1011.08;;;942.70;;
6864;SDS011;3471;49.678;8.388;2024-03-07T03:59:57;1021.03;;;952.58;;
6864;SDS011;3471;49.678;8.388;2024-03-07T04:02:23;1009.25;;;942.13;;
6864;SDS011;3471;49.678;8.388;2024-03-07T04:04:49;1038.70;;;968.97;;
6864;SDS011;3471;49.678;8.388;2024-03-07T04:07:16;993.42;;;926.97;;
6864;SDS011;3471;49.678;8.388;2024-03-07T04:09:43;1015.97;;;947.45;;
6864;SDS011;3471;49.678;8.388;2024-03-07T04:12:10;1026.55;;;957.03;;
6864;SDS011;3471;49.678;8.388;2024-03-07T04:14:39;978.00;;;912.27;;
6864;SDS011;3471;49.678;8.388;2024-03-07T04:17:06;1010.33;;;942.92;;
6864;SDS011;3471;49.678;8.388;2024-03-07T04:19:35;1024.18;;;955.63;;
6864;SDS011;3471;49.678;8.388;2024-03-07T04:22:00;968.00;;;902.90;;
6864;SDS011;3471;49.678;8.388;2024-03-07T04:24:28;1010.53;;;942.35;;
6864;SDS011;3471;49.678;8.388;2024-03-07T04:26:57;1023.88;;;955.22;;
6864;SDS011;3471;49.678;8.388;2024-03-07T04:29:23;1002.60;;;934.75;;
6864;SDS011;3471;49.678;8.388;2024-03-07T04:31:49;1005.42;;;937.42;;
6864;SDS011;3471;49.678;8.388;2024-03-07T04:34:15;1065.70;;;993.97;;
6864;SDS011;3471;49.678;8.388;2024-03-07T04:36:41;1046.27;;;976.10;;
6864;SDS011;3471;49.678;8.388;2024-03-07T04:39:06;1026.00;;;955.70;;
6864;SDS011;3471;49.678;8.388;2024-03-07T04:41:39;1077.20;;;999.90;;
6864;SDS011;3471;49.678;8.388;2024-03-07T04:44:05;1016.60;;;948.30;;
6864;SDS011;3471;49.678;8.388;2024-03-07T04:46:30;1028.05;;;958.33;;
6864;SDS011;3471;49.678;8.388;2024-03-07T04:48:56;1045.67;;;974.60;;
6864;SDS011;3471;49.678;8.388;2024-03-07T04:51:22;996.63;;;928.85;;
6864;SDS011;3471;49.678;8.388;2024-03-07T04:53:48;1021.90;;;952.40;;
6864;SDS011;3471;49.678;8.388;2024-03-07T04:56:13;1011.15;;;943.30;;
6864;SDS011;3471;49.678;8.388;2024-03-07T04:58:39;1016.88;;;947.45;;
6864;SDS011;3471;49.678;8.388;2024-03-07T05:01:05;1098.70;;;999.90;;
6864;SDS011;3471;49.678;8.388;2024-03-07T05:03:30;1079.60;;;999.90;;
6864;SDS011;3471;49.678;8.388;2024-03-07T05:05:57;1082.65;;;999.90;;
6864;SDS011;3471;49.678;8.388;2024-03-07T05:08:22;1129.20;;;999.90;;
6864;SDS011;3471;49.678;8.388;2024-03-07T05:10:49;1145.93;;;999.90;;
6864;SDS011;3471;49.678;8.388;2024-03-07T05:13:17;1106.97;;;999.90;;
6864;SDS011;3471;49.678;8.388;2024-03-07T05:15:42;1171.83;;;999.90;;
6864;SDS011;3471;49.678;8.388;2024-03-07T05:18:08;1168.75;;;999.90;;
6864;SDS011;3471;49.678;8.388;2024-03-07T05:20:34;1115.68;;;999.90;;
6864;SDS011;3471;49.678;8.388;2024-03-07T05:23:00;1145.35;;;999.90;;
6864;SDS011;3471;49.678;8.388;2024-03-07T05:25:26;1084.38;;;999.90;;
6864;SDS011;3471;49.678;8.388;2024-03-07T05:27:52;1150.20;;;999.90;;
6864;SDS011;3471;49.678;8.388;2024-03-07T05:30:18;1141.90;;;999.90;;
6864;SDS011;3471;49.678;8.388;2024-03-07T05:32:43;1135.57;;;999.90;;
6864;SDS011;3471;49.678;8.388;2024-03-07T05:35:09;1134.33;;;999.90;;
6864;SDS011;3471;49.678;8.388;2024-03-07T05:37:36;1104.68;;;999.90;;
6864;SDS011;3471;49.678;8.388;2024-03-07T05:40:02;1157.30;;;999.90;;
6864;SDS011;3471;49.678;8.388;2024-03-07T05:42:28;1132.15;;;999.90;;
6864;SDS011;3471;49.678;8.388;2024-03-07T05:44:54;1091.38;;;999.90;;
6864;SDS011;3471;49.678;8.388;2024-03-07T05:47:20;1141.32;;;999.90;;
6864;SDS011;3471;49.678;8.388;2024-03-07T05:49:46;1053.97;;;982.10;;
6864;SDS011;3471;49.678;8.388;2024-03-07T05:52:12;1039.23;;;968.50;;
6864;SDS011;3471;49.678;8.388;2024-03-07T05:54:38;1027.15;;;954.92;;
6864;SDS011;3471;49.678;8.388;2024-03-07T05:57:03;1074.13;;;999.80;;
6864;SDS011;3471;49.678;8.388;2024-03-07T05:59:31;1059.57;;;985.77;;
6864;SDS011;3471;49.678;8.388;2024-03-07T06:01:57;1064.35;;;992.20;;
6864;SDS011;3471;49.678;8.388;2024-03-07T06:04:23;1052.03;;;980.28;;
6864;SDS011;3471;49.678;8.388;2024-03-07T06:06:49;1015.05;;;941.10;;
6864;SDS011;3471;49.678;8.388;2024-03-07T06:09:15;1098.77;;;999.90;;
6864;SDS011;3471;49.678;8.388;2024-03-07T06:11:46;1104.80;;;999.90;;
6864;SDS011;3471;49.678;8.388;2024-03-07T06:14:12;1144.10;;;999.90;;
6864;SDS011;3471;49.678;8.388;2024-03-07T06:16:39;1010.43;;;938.90;;
6864;SDS011;3471;49.678;8.388;2024-03-07T06:19:06;1053.35;;;980.67;;
6864;SDS011;3471;49.678;8.388;2024-03-07T06:21:33;1056.40;;;983.45;;
6864;SDS011;3471;49.678;8.388;2024-03-07T06:24:00;1050.95;;;977.13;;
6864;SDS011;3471;49.678;8.388;2024-03-07T06:26:27;1046.80;;;974.88;;
6864;SDS011;3471;49.678;8.388;2024-03-07T06:29:14;1068.30;;;994.08;;
6864;SDS011;3471;49.678;8.388;2024-03-07T06:31:44;1107.70;;;999.90;;
6864;SDS011;3471;49.678;8.388;2024-03-07T06:34:13;1092.07;;;999.90;;
6864;SDS011;3471;49.678;8.388;2024-03-07T06:36:39;1096.90;;;999.90;;
6864;SDS011;3471;49.678;8.388;2024-03-07T06:39:05;1102.78;;;999.90;;
6864;SDS011;3471;49.678;8.388;2024-03-07T06:41:35;1099.25;;;999.90;;
6864;SDS011;3471;49.678;8.388;2024-03-07T06:44:01;1125.75;;;999.90;;
6864;SDS011;3471;49.678;8.388;2024-03-07T06:46:27;1112.25;;;999.90;;
6864;SDS011;3471;49.678;8.388;2024-03-07T06:48:53;1107.90;;;999.90;;
6864;SDS011;3471;49.678;8.388;2024-03-07T06:51:20;1072.25;;;999.10;;
6864;SDS011;3471;49.678;8.388;2024-03-07T06:53:47;1022.42;;;950.25;;
6864;SDS011;3471;49.678;8.388;2024-03-07T06:56:13;1085.53;;;999.90;;
6864;SDS011;3471;49.678;8.388;2024-03-07T06:58:41;1082.53;;;999.90;;
6864;SDS011;3471;49.678;8.388;2024-03-07T07:01:07;1148.40;;;999.90;;
6864;SDS011;3471;49.678;8.388;2024-03-07T07:03:35;1051.38;;;978.88;;
6864;SDS011;3471;49.678;8.388;2024-03-07T07:06:01;1038.57;;;966.60;;
6864;SDS011;3471;49.678;8.388;2024-03-07T07:08:27;1115.63;;;999.90;;
6864;SDS011;3471;49.678;8.388;2024-03-07T07:10:54;1046.97;;;976.55;;
6864;SDS011;3471;49.678;8.388;2024-03-07T07:13:21;1159.40;;;999.90;;
6864;SDS011;3471;49.678;8.388;2024-03-07T07:15:47;1197.65;;;999.90;;
6864;SDS011;3471;49.678;8.388;2024-03-07T07:18:13;1168.20;;;999.90;;
6864;SDS011;3471;49.678;8.388;2024-03-07T07:20:40;1096.82;;;999.90;;
6864;SDS011;3471;49.678;8.388;2024-03-07T07:23:05;1151.38;;;999.90;;
6864;SDS011;3471;49.678;8.388;2024-03-07T07:25:31;1103.03;;;999.90;;
6864;SDS011;3471;49.678;8.388;2024-03-07T07:27:57;1119.55;;;999.90;;
6864;SDS011;3471;49.678;8.388;2024-03-07T07:30:24;1162.50;;;999.90;;
6864;SDS011;3471;49.678;8.388;2024-03-07T07:32:52;1166.40;;;999.90;;
6864;SDS011;3471;49.678;8.388;2024-03-07T07:35:19;1163.70;;;999.90;;
6864;SDS011;3471;49.678;8.388;2024-03-07T07:37:47;1172.82;;;999.90;;
6864;SDS011;3471;49.678;8.388;2024-03-07T07:40:15;1180.55;;;999.90;;
6864;SDS011;3471;49.678;8.388;2024-03-07T07:42:48;1166.80;;;999.90;;
6864;SDS011;3471;49.678;8.388;2024-03-07T07:45:17;1154.05;;;999.90;;
6864;SDS011;3471;49.678;8.388;2024-03-07T07:47:44;1168.40;;;999.90;;
6864;SDS011;3471;49.678;8.388;2024-03-07T07:50:11;1202.22;;;999.90;;
6864;SDS011;3471;49.678;8.388;2024-03-07T07:52:45;1197.93;;;999.90;;
6864;SDS011;3471;49.678;8.388;2024-03-07T07:55:13;1175.75;;;999.90;;
6864;SDS011;3471;49.678;8.388;2024-03-07T07:57:43;1183.95;;;999.90;;
6864;SDS011;3471;49.678;8.388;2024-03-07T08:00:11;1188.40;;;999.90;;
6864;SDS011;3471;49.678;8.388;2024-03-07T08:02:46;1152.70;;;999.90;;
6864;SDS011;3471;49.678;8.388;2024-03-07T08:05:13;1170.23;;;999.90;;
6864;SDS011;3471;49.678;8.388;2024-03-07T08:07:42;1186.43;;;999.90;;
6864;SDS011;3471;49.678;8.388;2024-03-07T08:10:08;1205.90;;;999.90;;
6864;SDS011;3471;49.678;8.388;2024-03-07T08:12:35;1185.03;;;999.90;;
6864;SDS011;3471;49.678;8.388;2024-03-07T08:15:02;1214.18;;;999.90;;
6864;SDS011;3471;49.678;8.388;2024-03-07T08:17:29;1182.50;;;999.90;;
6864;SDS011;3471;49.678;8.388;2024-03-07T08:19:56;1210.32;;;999.90;;
6864;SDS011;3471;49.678;8.388;2024-03-07T08:22:22;1221.93;;;999.90;;
6864;SDS011;3471;49.678;8.388;2024-03-07T08:24:47;1148.40;;;999.90;;
6864;SDS011;3471;49.678;8.388;2024-03-07T08:27:13;1174.13;;;999.90;;
6864;SDS011;3471;49.678;8.388;2024-03-07T08:29:38;1127.57;;;999.90;;
6864;SDS011;3471;49.678;8.388;2024-03-07T08:32:04;1153.78;;;999.90;;
6864;SDS011;3471;49.678;8.388;2024-03-07T08:34:31;1100.60;;;999.90;;
6864;SDS011;3471;49.678;8.388;2024-03-07T08:36:56;1113.53;;;999.90;;
6864;SDS011;3471;49.678;8.388;2024-03-07T08:39:22;1104.60;;;999.90;;
6864;SDS011;3471;49.678;8.388;2024-03-07T08:41:48;1125.30;;;999.90;;
6864;SDS011;3471;49.678;8.388;2024-03-07T08:44:13;1164.03;;;999.90;;
6864;SDS011;3471;49.678;8.388;2024-03-07T08:46:39;1087.03;;;999.90;;
6864;SDS011;3471;49.678;8.388;2024-03-07T08:49:06;1066.38;;;995.75;;
6864;SDS011;3471;49.678;8.388;2024-03-07T08:51:32;1084.67;;;999.90;;
6864;SDS011;3471;49.678;8.388;2024-03-07T08:53:57;1103.38;;;999.90;;
6864;SDS011;3471;49.678;8.388;2024-03-07T08:56:24;1082.03;;;999.90;;
6864;SDS011;3471;49.678;8.388;2024-03-07T08:58:49;1065.13;;;993.87;;
6864;SDS011;3471;49.678;8.388;2024-03-07T09:01:15;1078.70;;;999.90;;
6864;SDS011;3471;49.678;8.388;2024-03-07T09:03:40;1069.72;;;998.08;;
6864;SDS011;3471;49.678;8.388;2024-03-07T09:06:06;1114.28;;;999.90;;
6864;SDS011;3471;49.678;8.388;2024-03-07T09:08:31;1111.03;;;999.90;;
6864;SDS011;3471;49.678;8.388;2024-03-07T09:10:57;1068.70;;;997.00;;
6864;SDS011;3471;49.678;8.388;2024-03-07T09:13:23;1044.63;;;974.63;;
6864;SDS011;3471;49.678;8.388;2024-03-07T09:15:48;981.33;;;915.43;;
6864;SDS011;3471;49.678;8.388;2024-03-07T09:18:14;963.72;;;899.08;;
6864;SDS011;3471;49.678;8.388;2024-03-07T09:20:41;990.17;;;923.38;;
6864;SDS011;3471;49.678;8.388;2024-03-07T09:23:06;981.70;;;915.57;;
6864;SDS011;3471;49.678;8.388;2024-03-07T09:25:32;932.47;;;869.58;;
6864;SDS011;3471;49.678;8.388;2024-03-07T09:27:58;1021.33;;;952.35;;
6864;SDS011;3471;49.678;8.388;2024-03-07T09:30:25;986.92;;;920.13;;
6864;SDS011;3471;49.678;8.388;2024-03-07T09:32:52;966.63;;;901.53;;
6864;SDS011;3471;49.678;8.388;2024-03-07T09:35:20;923.03;;;860.78;;
6864;SDS011;3471;49.678;8.388;2024-03-07T09:37:46;930.65;;;867.80;;
6864;SDS011;3471;49.678;8.388;2024-03-07T09:40:12;923.75;;;861.33;;
6864;SDS011;3471;49.678;8.388;2024-03-07T09:42:42;898.40;;;837.95;;
6864;SDS011;3471;49.678;8.388;2024-03-07T09:45:20;844.08;;;787.38;;
6864;SDS011;3471;49.678;8.388;2024-03-07T09:47:47;866.00;;;807.72;;
6864;SDS011;3471;49.678;8.388;2024-03-07T09:50:18;826.75;;;771.35;;
6864;SDS011;3471;49.678;8.388;2024-03-07T09:52:46;822.75;;;767.42;;
6864;SDS011;3471;49.678;8.388;2024-03-07T09:55:14;809.53;;;755.03;;
6864;SDS011;3471;49.678;8.388;2024-03-07T09:57:41;847.97;;;791.17;;
6864;SDS011;3471;49.678;8.388;2024-03-07T10:00:07;825.05;;;769.80;;
6864;SDS011;3471;49.678;8.388;2024-03-07T10:02:43;869.75;;;811.65;;
6864;SDS011;3471;49.678;8.388;2024-03-07T10:05:11;803.10;;;750.55;;
6864;SDS011;3471;49.678;8.388;2024-03-07T10:07:40;875.95;;;817.35;;
6864;SDS011;3471;49.678;8.388;2024-03-07T10:10:05;949.58;;;886.28;;
6864;SDS011;3471;49.678;8.388;2024-03-07T10:12:36;918.92;;;857.63;;
6864;SDS011;3471;49.678;8.388;2024-03-07T10:15:05;915.38;;;854.08;;
6864;SDS011;3471;49.678;8.388;2024-03-07T10:17:31;880.17;;;821.17;;
6864;SDS011;3471;49.678;8.388;2024-03-07T10:19:59;907.40;;;846.58;;
6864;SDS011;3471;49.678;8.388;2024-03-07T10:22:26;847.92;;;790.88;;
6864;SDS011;3471;49.678;8.388;2024-03-07T10:24:52;909.88;;;849.08;;
6864;SDS011;3471;49.678;8.388;2024-03-07T10:27:19;914.00;;;852.95;;
6864;SDS011;3471;49.678;8.388;2024-03-07T10:29:48;926.58;;;864.63;;
6864;SDS011;3471;49.678;8.388;2024-03-07T10:32:20;864.58;;;806.88;;
6864;SDS011;3471;49.678;8.388;2024-03-07T10:34:52;840.15;;;783.95;;
6864;SDS011;3471;49.678;8.388;2024-03-07T10:37:19;915.40;;;854.00;;
6864;SDS011;3471;49.678;8.388;2024-03-07T10:39:50;924.13;;;862.42;;
6864;SDS011;3471;49.678;8.388;2024-03-07T10:42:17;898.85;;;838.72;;
6864;SDS011;3471;49.678;8.388;2024-03-07T10:44:47;913.25;;;852.17;;
6864;SDS011;3471;49.678;8.388;2024-03-07T10:47:17;898.35;;;838.20;;
6864;SDS011;3471;49.678;8.388;2024-03-07T10:52:52;885.97;;;826.50;;
6864;SDS011;3471;49.678;8.388;2024-03-07T10:58:27;877.40;;;818.13;;
6864;SDS011;3471;49.678;8.388;2024-03-07T11:01:02;1011.13;;;941.83;;
6864;SDS011;3471;49.678;8.388;2024-03-07T11:03:31;1090.70;;;999.90;;
6864;SDS011;3471;49.678;8.388;2024-03-07T11:05:58;1137.07;;;999.90;;
6864;SDS011;3471;49.678;8.388;2024-03-07T11:08:25;1102.47;;;999.90;;
6864;SDS011;3471;49.678;8.388;2024-03-07T11:10:52;1097.97;;;999.90;;
6864;SDS011;3471;49.678;8.388;2024-03-07T11:13:18;1077.28;;;999.90;;
6864;SDS011;3471;49.678;8.388;2024-03-07T11:15:45;1063.43;;;989.22;;
6864;SDS011;3471;49.678;8.388;2024-03-07T11:18:13;1101.25;;;999.90;;
6864;SDS011;3471;49.678;8.388;2024-03-07T11:20:39;1085.47;;;999.90;;
6864;SDS011;3471;49.678;8.388;2024-03-07T11:23:24;1112.47;;;999.90;;
6864;SDS011;3471;49.678;8.388;2024-03-07T11:26:06;1077.47;;;999.90;;
6864;SDS011;3471;49.678;8.388;2024-03-07T11:28:33;1080.32;;;999.90;;
6864;SDS011;3471;49.678;8.388;2024-03-07T11:36:44;977.65;;;909.03;;
6864;SDS011;3471;49.678;8.388;2024-03-07T11:42:19;1053.10;;;977.37;;
6864;SDS011;3471;49.678;8.388;2024-03-07T11:44:48;1029.38;;;955.85;;
6864;SDS011;3471;49.678;8.388;2024-03-07T11:47:14;1033.07;;;959.72;;
6864;SDS011;3471;49.678;8.388;2024-03-07T11:49:41;920.53;;;856.13;;
6864;SDS011;3471;49.678;8.388;2024-03-07T11:52:06;952.13;;;885.17;;
6864;SDS011;3471;49.678;8.388;2024-03-07T11:54:41;973.38;;;905.08;;
6864;SDS011;3471;49.678;8.388;2024-03-07T11:57:19;954.33;;;887.50;;
6864;SDS011;3471;49.678;8.388;2024-03-07T11:59:51;952.88;;;886.63;;
6864;SDS011;3471;49.678;8.388;2024-03-07T12:02:18;998.90;;;929.20;;
6864;SDS011;3471;49.678;8.388;2024-03-07T12:04:49;975.35;;;907.60;;
6864;SDS011;3471;49.678;8.388;2024-03-07T12:07:15;937.78;;;873.00;;
6864;SDS011;3471;49.678;8.388;2024-03-07T12:09:47;939.67;;;874.90;;
6864;SDS011;3471;49.678;8.388;2024-03-07T12:12:19;1040.15;;;967.55;;
6864;SDS011;3471;49.678;8.388;2024-03-07T12:14:53;1016.33;;;945.53;;
6864;SDS011;3471;49.678;8.388;2024-03-07T12:17:19;1031.07;;;959.28;;
6864;SDS011;3471;49.678;8.388;2024-03-07T12:19:46;1026.17;;;954.80;;
6864;SDS011;3471;49.678;8.388;2024-03-07T12:22:12;959.35;;;893.05;;
6864;SDS011;3471;49.678;8.388;2024-03-07T12:24:38;972.63;;;905.50;;
6864;SDS011;3471;49.678;8.388;2024-03-07T12:27:08;979.55;;;911.72;;
6864;SDS011;3471;49.678;8.388;2024-03-07T12:29:35;993.47;;;924.78;;
6864;SDS011;3471;49.678;8.388;2024-03-07T12:32:08;971.22;;;904.38;;
6864;SDS011;3471;49.678;8.388;2024-03-07T12:34:38;982.92;;;915.28;;
6864;SDS011;3471;49.678;8.388;2024-03-07T12:37:10;986.37;;;918.70;;
6864;SDS011;3471;49.678;8.388;2024-03-07T12:39:40;1047.15;;;975.08;;
6864;SDS011;3471;49.678;8.388;2024-03-07T12:42:17;991.10;;;922.90;;
6864;SDS011;3471;49.678;8.388;2024-03-07T12:44:44;986.50;;;918.70;;
6864;SDS011;3471;49.678;8.388;2024-03-07T12:47:14;1008.23;;;938.83;;
6864;SDS011;3471;49.678;8.388;2024-03-07T12:49:40;995.25;;;926.95;;
6864;SDS011;3471;49.678;8.388;2024-03-07T12:52:07;1024.93;;;954.47;;
6864;SDS011;3471;49.678;8.388;2024-03-07T12:54:33;1022.53;;;952.27;;
6864;SDS011;3471;49.678;8.388;2024-03-07T12:57:09;1021.38;;;951.08;;
6864;SDS011;3471;49.678;8.388;2024-03-07T12:59:35;1036.07;;;965.05;;
6864;SDS011;3471;49.678;8.388;2024-03-07T13:02:03;992.92;;;924.92;;
6864;SDS011;3471;49.678;8.388;2024-03-07T13:04:31;904.28;;;842.60;;
6864;SDS011;3471;49.678;8.388;2024-03-07T13:06:57;874.47;;;815.22;;
6864;SDS011;3471;49.678;8.388;2024-03-07T13:09:26;870.60;;;811.15;;
6864;SDS011;3471;49.678;8.388;2024-03-07T13:11:53;868.93;;;809.77;;
6864;SDS011;3471;49.678;8.388;2024-03-07T13:14:19;864.67;;;806.00;;
6864;SDS011;3471;49.678;8.388;2024-03-07T13:16:44;886.72;;;826.35;;
6864;SDS011;3471;49.678;8.388;2024-03-07T13:19:10;853.10;;;795.40;;
6864;SDS011;3471;49.678;8.388;2024-03-07T13:21:37;840.30;;;783.20;;
6864;SDS011;3471;49.678;8.388;2024-03-07T13:24:04;862.28;;;803.55;;
6864;SDS011;3471;49.678;8.388;2024-03-07T13:26:30;851.13;;;793.17;;
6864;SDS011;3471;49.678;8.388;2024-03-07T13:28:56;845.47;;;787.67;;
6864;SDS011;3471;49.678;8.388;2024-03-07T13:31:26;849.38;;;791.42;;
6864;SDS011;3471;49.678;8.388;2024-03-07T13:33:53;856.05;;;797.85;;
6864;SDS011;3471;49.678;8.388;2024-03-07T13:36:20;816.67;;;761.33;;
6864;SDS011;3471;49.678;8.388;2024-03-07T13:38:57;906.55;;;844.83;;
6864;SDS011;3471;49.678;8.388;2024-03-07T13:41:23;893.22;;;832.47;;
6864;SDS011;3471;49.678;8.388;2024-03-07T13:43:50;892.10;;;831.80;;
6864;SDS011;3471;49.678;8.388;2024-03-07T13:46:16;937.63;;;874.35;;
6864;SDS011;3471;49.678;8.388;2024-03-07T13:48:43;931.03;;;868.20;;
6864;SDS011;3471;49.678;8.388;2024-03-07T13:51:09;914.13;;;852.58;;
6864;SDS011;3471;49.678;8.388;2024-03-07T13:53:40;886.25;;;826.75;;
6864;SDS011;3471;49.678;8.388;2024-03-07T14:22:04;955.65;;;891.38;;
6864;SDS011;3471;49.678;8.388;2024-03-07T14:27:49;993.57;;;926.57;;
6864;SDS011;3471;49.678;8.388;2024-03-07T14:30:53;946.15;;;882.58;;
6864;SDS011;3471;49.678;8.388;2024-03-07T14:33:32;968.35;;;903.20;;
6864;SDS011;3471;49.678;8.388;2024-03-07T14:36:13;923.45;;;860.90;;
6864;SDS011;3471;49.678;8.388;2024-03-07T14:38:46;963.70;;;898.88;;
6864;SDS011;3471;49.678;8.388;2024-03-07T14:41:14;822.90;;;767.47;;
6864;SDS011;3471;49.678;8.388;2024-03-07T14:43:41;796.70;;;743.15;;
6864;SDS011;3471;49.678;8.388;2024-03-07T14:46:08;820.58;;;765.42;;
6864;SDS011;3471;49.678;8.388;2024-03-07T14:48:35;840.33;;;783.90;;
6864;SDS011;3471;49.678;8.388;2024-03-07T14:51:01;852.17;;;794.73;;
6864;SDS011;3471;49.678;8.388;2024-03-07T14:53:28;833.45;;;777.47;;
6864;SDS011;3471;49.678;8.388;2024-03-07T14:55:54;878.83;;;819.67;;
6864;SDS011;3471;49.678;8.388;2024-03-07T14:58:21;983.27;;;916.90;;